sensor_id;sensor_type;location;lat;lon;timestamp;temperature;humidity
24097;DHT22;12275;48.550;12.132;2023-03-26T00:01:31;7.30;99.90
24097;DHT22;12275;48.550;12.132;2023-03-26T00:04:06;7.30;99.90
24097;DHT22;12275;48.550;12.132;2023-03-26T00:06:36;7.30;99.90
24097;DHT22;12275;48.550;12.132;2023-03-26T00:09:04;7.30;99.90
24097;DHT22;12275;48.550;12.132;2023-03-26T00:11:38;7.30;99.90
24097;DHT22;12275;48.550;12.132;2023-03-26T00:14:07;7.40;99.90
24097;DHT22;12275;48.550;12.132;2023-03-26T00:16:42;7.40;99.90
24097;DHT22;12275;48.550;12.132;2023-03-26T00:19:07;7.40;99.90
24097;DHT22;12275;48.550;12.132;2023-03-26T00:21:36;7.40;99.90
24097;DHT22;12275;48.550;12.132;2023-03-26T00:24:06;7.40;99.90
24097;DHT22;12275;48.550;12.132;2023-03-26T00:26:36;7.40;99.90
24097;DHT22;12275;48.550;12.132;2023-03-26T00:29:07;7.40;99.90
24097;DHT22;12275;48.550;12.132;2023-03-26T00:31:34;7.40;99.90
24097;DHT22;12275;48.550;12.132;2023-03-26T00:34:00;7.40;99.90
24097;DHT22;12275;48.550;12.132;2023-03-26T00:36:27;7.30;99.90
24097;DHT22;12275;48.550;12.132;2023-03-26T00:38:55;7.40;99.90
24097;DHT22;12275;48.550;12.132;2023-03-26T00:41:22;7.40;99.90
24097;DHT22;12275;48.550;12.132;2023-03-26T00:43:51;7.40;99.90
24097;DHT22;12275;48.550;12.132;2023-03-26T00:46:17;7.40;99.90
24097;DHT22;12275;48.550;12.132;2023-03-26T00:48:44;7.40;99.90
24097;DHT22;12275;48.550;12.132;2023-03-26T00:51:10;7.40;99.90
24097;DHT22;12275;48.550;12.132;2023-03-26T00:53:36;7.40;99.90
24097;DHT22;12275;48.550;12.132;2023-03-26T00:56:04;7.40;99.90
24097;DHT22;12275;48.550;12.132;2023-03-26T00:58:30;7.40;99.90
24097;DHT22;12275;48.550;12.132;2023-03-26T01:00:56;7.40;99.90
24097;DHT22;12275;48.550;12.132;2023-03-26T01:03:26;7.40;99.90
24097;DHT22;12275;48.550;12.132;2023-03-26T01:06:07;7.30;99.90
24097;DHT22;12275;48.550;12.132;2023-03-26T01:08:48;7.40;99.90
24097;DHT22;12275;48.550;12.132;2023-03-26T01:11:19;7.40;99.90
24097;DHT22;12275;48.550;12.132;2023-03-26T01:13:50;7.40;99.90
24097;DHT22;12275;48.550;12.132;2023-03-26T01:16:18;7.40;99.90
24097;DHT22;12275;48.550;12.132;2023-03-26T01:18:45;7.40;99.90
24097;DHT22;12275;48.550;12.132;2023-03-26T01:21:13;7.40;99.90
24097;DHT22;12275;48.550;12.132;2023-03-26T01:23:45;7.40;99.90
24097;DHT22;12275;48.550;12.132;2023-03-26T01:28:57;7.40;99.90
24097;DHT22;12275;48.550;12.132;2023-03-26T01:31:29;7.40;99.90
24097;DHT22;12275;48.550;12.132;2023-03-26T01:34:13;7.30;99.90
24097;DHT22;12275;48.550;12.132;2023-03-26T01:36:52;7.30;99.90
24097;DHT22;12275;48.550;12.132;2023-03-26T01:39:41;7.20;99.90
24097;DHT22;12275;48.550;12.132;2023-03-26T01:42:19;7.10;99.90
24097;DHT22;12275;48.550;12.132;2023-03-26T01:44:49;7.10;99.90
24097;DHT22;12275;48.550;12.132;2023-03-26T01:47:16;7.10;99.90
24097;DHT22;12275;48.550;12.132;2023-03-26T01:49:42;7.10;99.90
24097;DHT22;12275;48.550;12.132;2023-03-26T01:52:12;7.10;99.90
24097;DHT22;12275;48.550;12.132;2023-03-26T01:54:38;7.10;99.90
24097;DHT22;12275;48.550;12.132;2023-03-26T01:57:18;7.10;99.90
24097;DHT22;12275;48.550;12.132;2023-03-26T02:00:05;7.10;99.90
24097;DHT22;12275;48.550;12.132;2023-03-26T02:02:40;7.10;99.90
24097;DHT22;12275;48.550;12.132;2023-03-26T02:05:13;7.10;99.90
24097;DHT22;12275;48.550;12.132;2023-03-26T02:10:28;7.00;99.90
24097;DHT22;12275;48.550;12.132;2023-03-26T02:12:54;7.00;99.90
24097;DHT22;12275;48.550;12.132;2023-03-26T02:15:21;7.00;99.90
24097;DHT22;12275;48.550;12.132;2023-03-26T02:17:46;7.00;99.90
24097;DHT22;12275;48.550;12.132;2023-03-26T02:20:14;7.00;99.90
24097;DHT22;12275;48.550;12.132;2023-03-26T02:22:40;7.00;99.90
24097;DHT22;12275;48.550;12.132;2023-03-26T02:25:11;7.10;99.90
24097;DHT22;12275;48.550;12.132;2023-03-26T02:27:37;7.00;99.90
24097;DHT22;12275;48.550;12.132;2023-03-26T02:30:04;6.90;99.90
24097;DHT22;12275;48.550;12.132;2023-03-26T02:32:30;6.90;99.90
24097;DHT22;12275;48.550;12.132;2023-03-26T02:34:56;6.90;99.90
24097;DHT22;12275;48.550;12.132;2023-03-26T02:37:22;6.90;99.90
24097;DHT22;12275;48.550;12.132;2023-03-26T02:39:47;6.90;99.90
24097;DHT22;12275;48.550;12.132;2023-03-26T02:42:13;6.90;99.90
24097;DHT22;12275;48.550;12.132;2023-03-26T02:44:40;6.90;99.90
24097;DHT22;12275;48.550;12.132;2023-03-26T02:47:06;6.80;99.90
24097;DHT22;12275;48.550;12.132;2023-03-26T02:49:31;6.80;99.90
24097;DHT22;12275;48.550;12.132;2023-03-26T02:51:58;6.80;99.90
24097;DHT22;12275;48.550;12.132;2023-03-26T02:54:24;6.80;99.90
24097;DHT22;12275;48.550;12.132;2023-03-26T02:56:49;6.80;99.90
24097;DHT22;12275;48.550;12.132;2023-03-26T02:59:15;6.70;99.90
24097;DHT22;12275;48.550;12.132;2023-03-26T03:01:41;6.80;99.90
24097;DHT22;12275;48.550;12.132;2023-03-26T03:04:10;6.80;99.90
24097;DHT22;12275;48.550;12.132;2023-03-26T03:06:36;6.90;99.90
24097;DHT22;12275;48.550;12.132;2023-03-26T03:09:05;6.80;99.90
24097;DHT22;12275;48.550;12.132;2023-03-26T03:11:31;6.80;99.90
24097;DHT22;12275;48.550;12.132;2023-03-26T03:13:56;6.80;99.90
24097;DHT22;12275;48.550;12.132;2023-03-26T03:16:22;6.80;99.90
24097;DHT22;12275;48.550;12.132;2023-03-26T03:18:47;6.80;99.90
24097;DHT22;12275;48.550;12.132;2023-03-26T03:21:27;6.70;99.90
24097;DHT22;12275;48.550;12.132;2023-03-26T03:23:53;6.70;99.90
24097;DHT22;12275;48.550;12.132;2023-03-26T03:26:19;6.60;99.90
24097;DHT22;12275;48.550;12.132;2023-03-26T03:28:52;6.60;99.90
24097;DHT22;12275;48.550;12.132;2023-03-26T03:31:17;6.50;99.90
24097;DHT22;12275;48.550;12.132;2023-03-26T03:33:43;6.50;99.90
24097;DHT22;12275;48.550;12.132;2023-03-26T03:36:11;6.60;99.90
24097;DHT22;12275;48.550;12.132;2023-03-26T03:38:38;6.60;99.90
24097;DHT22;12275;48.550;12.132;2023-03-26T03:41:04;6.50;99.90
24097;DHT22;12275;48.550;12.132;2023-03-26T03:43:29;6.50;99.90
24097;DHT22;12275;48.550;12.132;2023-03-26T03:45:57;6.50;99.90
24097;DHT22;12275;48.550;12.132;2023-03-26T03:48:22;6.50;99.90
24097;DHT22;12275;48.550;12.132;2023-03-26T03:50:48;6.60;99.90
24097;DHT22;12275;48.550;12.132;2023-03-26T03:53:13;6.50;99.90
24097;DHT22;12275;48.550;12.132;2023-03-26T03:55:40;6.50;99.90
24097;DHT22;12275;48.550;12.132;2023-03-26T03:58:07;6.50;99.90
24097;DHT22;12275;48.550;12.132;2023-03-26T04:00:34;6.50;99.90
24097;DHT22;12275;48.550;12.132;2023-03-26T04:03:02;6.40;99.90
24097;DHT22;12275;48.550;12.132;2023-03-26T04:05:30;6.40;99.90
24097;DHT22;12275;48.550;12.132;2023-03-26T04:07:56;6.40;99.90
24097;DHT22;12275;48.550;12.132;2023-03-26T04:10:21;6.40;99.90
24097;DHT22;12275;48.550;12.132;2023-03-26T04:12:47;6.40;99.90
24097;DHT22;12275;48.550;12.132;2023-03-26T04:15:13;6.40;99.90
24097;DHT22;12275;48.550;12.132;2023-03-26T04:17:39;6.40;99.90
24097;DHT22;12275;48.550;12.132;2023-03-26T04:20:07;6.40;99.90
24097;DHT22;12275;48.550;12.132;2023-03-26T04:22:33;6.40;99.90
24097;DHT22;12275;48.550;12.132;2023-03-26T04:24:58;6.40;99.90
24097;DHT22;12275;48.550;12.132;2023-03-26T04:27:27;6.30;99.90
24097;DHT22;12275;48.550;12.132;2023-03-26T04:29:55;6.20;99.90
24097;DHT22;12275;48.550;12.132;2023-03-26T04:32:23;6.20;99.90
24097;DHT22;12275;48.550;12.132;2023-03-26T04:34:50;6.20;99.90
24097;DHT22;12275;48.550;12.132;2023-03-26T04:37:26;6.20;99.90
24097;DHT22;12275;48.550;12.132;2023-03-26T04:39:52;6.20;99.90
24097;DHT22;12275;48.550;12.132;2023-03-26T04:42:19;6.30;99.90
24097;DHT22;12275;48.550;12.132;2023-03-26T04:44:47;6.20;99.90
24097;DHT22;12275;48.550;12.132;2023-03-26T04:47:16;6.20;99.90
24097;DHT22;12275;48.550;12.132;2023-03-26T04:49:42;6.20;99.90
24097;DHT22;12275;48.550;12.132;2023-03-26T04:52:11;6.20;99.90
24097;DHT22;12275;48.550;12.132;2023-03-26T04:54:37;6.30;99.90
24097;DHT22;12275;48.550;12.132;2023-03-26T04:57:05;6.30;99.90
24097;DHT22;12275;48.550;12.132;2023-03-26T04:59:32;6.40;99.90
24097;DHT22;12275;48.550;12.132;2023-03-26T05:02:01;6.30;99.90
24097;DHT22;12275;48.550;12.132;2023-03-26T05:04:28;6.30;99.90
24097;DHT22;12275;48.550;12.132;2023-03-26T05:06:54;6.30;99.90
24097;DHT22;12275;48.550;12.132;2023-03-26T05:09:22;6.30;99.90
24097;DHT22;12275;48.550;12.132;2023-03-26T05:11:47;6.30;99.90
24097;DHT22;12275;48.550;12.132;2023-03-26T05:14:15;6.30;99.90
24097;DHT22;12275;48.550;12.132;2023-03-26T05:16:40;6.30;99.90
24097;DHT22;12275;48.550;12.132;2023-03-26T05:19:06;6.30;99.90
24097;DHT22;12275;48.550;12.132;2023-03-26T05:21:32;6.40;99.90
24097;DHT22;12275;48.550;12.132;2023-03-26T05:23:58;6.40;99.90
24097;DHT22;12275;48.550;12.132;2023-03-26T05:26:23;6.40;99.90
24097;DHT22;12275;48.550;12.132;2023-03-26T05:28:49;6.40;99.90
24097;DHT22;12275;48.550;12.132;2023-03-26T05:31:17;6.50;99.90
24097;DHT22;12275;48.550;12.132;2023-03-26T05:33:42;6.40;99.90
24097;DHT22;12275;48.550;12.132;2023-03-26T05:36:09;6.50;99.90
24097;DHT22;12275;48.550;12.132;2023-03-26T05:38:37;6.60;99.90
24097;DHT22;12275;48.550;12.132;2023-03-26T05:41:04;6.60;99.90
24097;DHT22;12275;48.550;12.132;2023-03-26T05:43:30;6.60;99.90
24097;DHT22;12275;48.550;12.132;2023-03-26T05:45:55;6.60;99.90
24097;DHT22;12275;48.550;12.132;2023-03-26T05:48:21;6.60;99.90
24097;DHT22;12275;48.550;12.132;2023-03-26T05:50:50;6.50;99.90
24097;DHT22;12275;48.550;12.132;2023-03-26T05:53:16;6.50;99.90
24097;DHT22;12275;48.550;12.132;2023-03-26T05:55:45;6.50;99.90
24097;DHT22;12275;48.550;12.132;2023-03-26T05:58:11;6.50;99.90
24097;DHT22;12275;48.550;12.132;2023-03-26T06:00:37;6.40;99.90
24097;DHT22;12275;48.550;12.132;2023-03-26T06:03:03;6.50;99.90
24097;DHT22;12275;48.550;12.132;2023-03-26T06:05:36;6.50;99.90
24097;DHT22;12275;48.550;12.132;2023-03-26T06:08:02;6.50;99.90
24097;DHT22;12275;48.550;12.132;2023-03-26T06:10:27;6.50;99.90
24097;DHT22;12275;48.550;12.132;2023-03-26T06:12:53;6.50;99.90
24097;DHT22;12275;48.550;12.132;2023-03-26T06:15:18;6.50;99.90
24097;DHT22;12275;48.550;12.132;2023-03-26T06:17:44;6.60;99.90
24097;DHT22;12275;48.550;12.132;2023-03-26T06:20:10;6.70;99.90
24097;DHT22;12275;48.550;12.132;2023-03-26T06:22:36;6.70;99.90
24097;DHT22;12275;48.550;12.132;2023-03-26T06:25:02;6.70;99.90
24097;DHT22;12275;48.550;12.132;2023-03-26T06:27:27;6.70;99.90
24097;DHT22;12275;48.550;12.132;2023-03-26T06:29:53;6.70;99.90
24097;DHT22;12275;48.550;12.132;2023-03-26T06:32:18;6.70;99.90
24097;DHT22;12275;48.550;12.132;2023-03-26T06:34:44;6.80;99.90
24097;DHT22;12275;48.550;12.132;2023-03-26T06:37:10;6.80;99.90
24097;DHT22;12275;48.550;12.132;2023-03-26T06:39:35;6.90;99.90
24097;DHT22;12275;48.550;12.132;2023-03-26T06:42:01;6.90;99.90
24097;DHT22;12275;48.550;12.132;2023-03-26T06:44:26;7.00;99.90
24097;DHT22;12275;48.550;12.132;2023-03-26T06:46:52;7.00;99.90
24097;DHT22;12275;48.550;12.132;2023-03-26T06:49:17;7.00;99.90
24097;DHT22;12275;48.550;12.132;2023-03-26T06:51:43;7.00;99.90
24097;DHT22;12275;48.550;12.132;2023-03-26T06:54:10;7.10;99.90
24097;DHT22;12275;48.550;12.132;2023-03-26T06:56:36;7.10;99.90
24097;DHT22;12275;48.550;12.132;2023-03-26T06:59:01;7.20;99.90
24097;DHT22;12275;48.550;12.132;2023-03-26T07:01:27;7.20;99.90
24097;DHT22;12275;48.550;12.132;2023-03-26T07:03:52;7.20;99.90
24097;DHT22;12275;48.550;12.132;2023-03-26T07:06:18;7.20;99.90
24097;DHT22;12275;48.550;12.132;2023-03-26T07:08:43;7.20;99.90
24097;DHT22;12275;48.550;12.132;2023-03-26T07:11:09;7.30;99.90
24097;DHT22;12275;48.550;12.132;2023-03-26T07:13:35;7.20;99.90
24097;DHT22;12275;48.550;12.132;2023-03-26T07:16:01;7.30;99.90
24097;DHT22;12275;48.550;12.132;2023-03-26T07:18:27;7.40;99.90
24097;DHT22;12275;48.550;12.132;2023-03-26T07:20:53;7.50;99.90
24097;DHT22;12275;48.550;12.132;2023-03-26T07:23:19;7.50;99.90
24097;DHT22;12275;48.550;12.132;2023-03-26T07:25:46;7.40;99.90
24097;DHT22;12275;48.550;12.132;2023-03-26T07:28:16;7.50;99.90
24097;DHT22;12275;48.550;12.132;2023-03-26T07:36:47;7.60;99.90
24097;DHT22;12275;48.550;12.132;2023-03-26T07:44:03;7.90;99.90
24097;DHT22;12275;48.550;12.132;2023-03-26T07:46:32;7.80;99.90
24097;DHT22;12275;48.550;12.132;2023-03-26T07:49:02;7.90;99.90
24097;DHT22;12275;48.550;12.132;2023-03-26T07:51:29;7.80;99.90
24097;DHT22;12275;48.550;12.132;2023-03-26T07:53:55;8.00;99.90
24097;DHT22;12275;48.550;12.132;2023-03-26T11:19:03;8.20;99.90
24097;DHT22;12275;48.550;12.132;2023-03-26T11:21:33;8.30;99.90
24097;DHT22;12275;48.550;12.132;2023-03-26T11:32:06;8.30;99.90
24097;DHT22;12275;48.550;12.132;2023-03-26T11:37:40;8.30;99.90
24097;DHT22;12275;48.550;12.132;2023-03-26T11:40:08;8.30;99.90
24097;DHT22;12275;48.550;12.132;2023-03-26T11:42:35;8.40;99.90
24097;DHT22;12275;48.550;12.132;2023-03-26T11:45:02;8.40;99.90
24097;DHT22;12275;48.550;12.132;2023-03-26T11:47:39;8.40;99.90
24097;DHT22;12275;48.550;12.132;2023-03-26T11:50:08;8.30;99.90
24097;DHT22;12275;48.550;12.132;2023-03-26T11:52:38;8.30;99.90
24097;DHT22;12275;48.550;12.132;2023-03-26T11:55:04;8.40;99.90
24097;DHT22;12275;48.550;12.132;2023-03-26T11:57:31;8.30;99.90
24097;DHT22;12275;48.550;12.132;2023-03-26T12:00:04;8.30;99.90
24097;DHT22;12275;48.550;12.132;2023-03-26T12:02:42;8.30;99.90
24097;DHT22;12275;48.550;12.132;2023-03-26T12:07:50;8.30;99.90
24097;DHT22;12275;48.550;12.132;2023-03-26T12:10:59;8.40;99.90
24097;DHT22;12275;48.550;12.132;2023-03-26T12:15:41;8.70;99.90
24097;DHT22;12275;48.550;12.132;2023-03-26T12:21:13;8.60;99.90
24097;DHT22;12275;48.550;12.132;2023-03-26T12:26:16;8.50;99.90
24097;DHT22;12275;48.550;12.132;2023-03-26T12:28:46;8.50;99.90
24097;DHT22;12275;48.550;12.132;2023-03-26T12:31:12;8.60;99.90
24097;DHT22;12275;48.550;12.132;2023-03-26T12:33:44;8.60;99.90
24097;DHT22;12275;48.550;12.132;2023-03-26T12:36:21;8.70;99.90
24097;DHT22;12275;48.550;12.132;2023-03-26T12:38:48;8.70;99.90
24097;DHT22;12275;48.550;12.132;2023-03-26T12:41:15;8.90;99.90
24097;DHT22;12275;48.550;12.132;2023-03-26T12:43:45;9.10;99.90
24097;DHT22;12275;48.550;12.132;2023-03-26T12:46:44;9.10;99.90
24097;DHT22;12275;48.550;12.132;2023-03-26T12:49:04;9.10;99.90
24097;DHT22;12275;48.550;12.132;2023-03-26T13:06:48;9.80;99.90
24097;DHT22;12275;48.550;12.132;2023-03-26T13:09:30;9.80;99.90
24097;DHT22;12275;48.550;12.132;2023-03-26T13:17:15;9.80;99.90
24097;DHT22;12275;48.550;12.132;2023-03-26T13:27:42;9.60;99.90
24097;DHT22;12275;48.550;12.132;2023-03-26T13:30:21;9.60;99.90
24097;DHT22;12275;48.550;12.132;2023-03-26T13:35:20;9.50;99.90
24097;DHT22;12275;48.550;12.132;2023-03-26T13:37:57;9.50;99.90
24097;DHT22;12275;48.550;12.132;2023-03-26T13:43:02;9.60;99.90
24097;DHT22;12275;48.550;12.132;2023-03-26T13:48:10;9.60;99.90
24097;DHT22;12275;48.550;12.132;2023-03-26T13:50:37;9.60;99.90
24097;DHT22;12275;48.550;12.132;2023-03-26T13:53:05;9.50;99.90
24097;DHT22;12275;48.550;12.132;2023-03-26T14:03:17;9.50;99.90
24097;DHT22;12275;48.550;12.132;2023-03-26T14:05:46;9.50;99.90
24097;DHT22;12275;48.550;12.132;2023-03-26T14:10:51;9.40;99.90
24097;DHT22;12275;48.550;12.132;2023-03-26T14:15:58;9.40;99.90
24097;DHT22;12275;48.550;12.132;2023-03-26T14:23:38;9.30;99.90
24097;DHT22;12275;48.550;12.132;2023-03-26T14:31:20;9.20;99.90
24097;DHT22;12275;48.550;12.132;2023-03-26T14:33:51;9.20;99.90
24097;DHT22;12275;48.550;12.132;2023-03-26T14:41:24;9.10;99.90
24097;DHT22;12275;48.550;12.132;2023-03-26T14:52:15;9.20;99.90
24097;DHT22;12275;48.550;12.132;2023-03-26T14:54:43;9.20;99.90
24097;DHT22;12275;48.550;12.132;2023-03-26T15:15:40;9.10;99.90
24097;DHT22;12275;48.550;12.132;2023-03-26T15:44:46;8.70;99.90
24097;DHT22;12275;48.550;12.132;2023-03-26T15:47:38;8.70;99.90
24097;DHT22;12275;48.550;12.132;2023-03-26T15:52:28;8.60;99.90
24097;DHT22;12275;48.550;12.132;2023-03-26T16:10:49;8.50;99.90
24097;DHT22;12275;48.550;12.132;2023-03-26T16:15:42;8.40;99.90
24097;DHT22;12275;48.550;12.132;2023-03-26T16:23:02;8.40;99.90
24097;DHT22;12275;48.550;12.132;2023-03-26T16:25:29;8.40;99.90
24097;DHT22;12275;48.550;12.132;2023-03-26T16:30:36;8.40;99.90
24097;DHT22;12275;48.550;12.132;2023-03-26T16:33:11;8.30;99.90
24097;DHT22;12275;48.550;12.132;2023-03-26T16:35:39;8.40;99.90
24097;DHT22;12275;48.550;12.132;2023-03-26T16:38:10;8.30;99.90
24097;DHT22;12275;48.550;12.132;2023-03-26T16:40:50;8.30;99.90
24097;DHT22;12275;48.550;12.132;2023-03-26T16:53:35;8.20;99.90
24097;DHT22;12275;48.550;12.132;2023-03-26T16:58:57;8.20;99.90
24097;DHT22;12275;48.550;12.132;2023-03-26T17:04:16;8.10;99.90
24097;DHT22;12275;48.550;12.132;2023-03-26T17:06:49;8.10;99.90
24097;DHT22;12275;48.550;12.132;2023-03-26T17:14:35;8.00;99.90
24097;DHT22;12275;48.550;12.132;2023-03-26T17:32:22;7.80;99.90
24097;DHT22;12275;48.550;12.132;2023-03-26T17:34:58;7.90;99.90
24097;DHT22;12275;48.550;12.132;2023-03-26T17:37:30;7.90;99.90
24097;DHT22;12275;48.550;12.132;2023-03-26T17:42:28;7.90;99.90
24097;DHT22;12275;48.550;12.132;2023-03-26T17:45:15;7.90;99.90
24097;DHT22;12275;48.550;12.132;2023-03-26T17:50:14;8.00;99.90
24097;DHT22;12275;48.550;12.132;2023-03-26T17:52:44;8.00;99.90
24097;DHT22;12275;48.550;12.132;2023-03-26T17:55:16;8.00;99.90
24097;DHT22;12275;48.550;12.132;2023-03-26T17:57:43;7.90;99.90
24097;DHT22;12275;48.550;12.132;2023-03-26T18:00:13;8.00;99.90
24097;DHT22;12275;48.550;12.132;2023-03-26T18:02:43;7.90;99.90
24097;DHT22;12275;48.550;12.132;2023-03-26T18:05:11;7.90;99.90
24097;DHT22;12275;48.550;12.132;2023-03-26T18:17:46;7.90;99.90
24097;DHT22;12275;48.550;12.132;2023-03-26T18:20:22;7.90;99.90
24097;DHT22;12275;48.550;12.132;2023-03-26T18:22:49;7.90;99.90
24097;DHT22;12275;48.550;12.132;2023-03-26T18:25:22;7.90;99.90
24097;DHT22;12275;48.550;12.132;2023-03-26T18:27:49;7.80;99.90
24097;DHT22;12275;48.550;12.132;2023-03-26T18:30:16;7.80;99.90
24097;DHT22;12275;48.550;12.132;2023-03-26T18:32:49;7.70;99.90
24097;DHT22;12275;48.550;12.132;2023-03-26T18:35:17;7.70;99.90
24097;DHT22;12275;48.550;12.132;2023-03-26T18:37:44;7.70;99.90
24097;DHT22;12275;48.550;12.132;2023-03-26T18:40:18;7.70;99.90
24097;DHT22;12275;48.550;12.132;2023-03-26T18:47:45;7.70;99.90
24097;DHT22;12275;48.550;12.132;2023-03-26T18:50:14;7.70;99.90
24097;DHT22;12275;48.550;12.132;2023-03-26T18:52:41;7.70;99.90
24097;DHT22;12275;48.550;12.132;2023-03-26T18:55:09;7.80;99.90
24097;DHT22;12275;48.550;12.132;2023-03-26T18:57:35;7.80;99.90
24097;DHT22;12275;48.550;12.132;2023-03-26T19:00:06;7.80;99.90
24097;DHT22;12275;48.550;12.132;2023-03-26T19:02:39;7.80;99.90
24097;DHT22;12275;48.550;12.132;2023-03-26T19:05:05;7.80;99.90
24097;DHT22;12275;48.550;12.132;2023-03-26T19:07:31;7.80;99.90
24097;DHT22;12275;48.550;12.132;2023-03-26T19:09:59;7.80;99.90
24097;DHT22;12275;48.550;12.132;2023-03-26T19:12:29;7.80;99.90
24097;DHT22;12275;48.550;12.132;2023-03-26T19:15:09;7.80;99.90
24097;DHT22;12275;48.550;12.132;2023-03-26T19:17:39;7.80;99.90
24097;DHT22;12275;48.550;12.132;2023-03-26T19:20:06;7.70;99.90
24097;DHT22;12275;48.550;12.132;2023-03-26T19:22:34;7.70;99.90
24097;DHT22;12275;48.550;12.132;2023-03-26T19:25:00;7.70;99.90
24097;DHT22;12275;48.550;12.132;2023-03-26T19:27:26;7.60;99.90
24097;DHT22;12275;48.550;12.132;2023-03-26T19:29:52;7.60;99.90
24097;DHT22;12275;48.550;12.132;2023-03-26T19:32:27;7.60;99.90
24097;DHT22;12275;48.550;12.132;2023-03-26T19:34:53;7.50;99.90
24097;DHT22;12275;48.550;12.132;2023-03-26T19:37:25;7.50;99.90
24097;DHT22;12275;48.550;12.132;2023-03-26T19:39:59;7.50;99.90
24097;DHT22;12275;48.550;12.132;2023-03-26T19:42:26;7.50;99.90
24097;DHT22;12275;48.550;12.132;2023-03-26T19:44:53;7.50;99.90
24097;DHT22;12275;48.550;12.132;2023-03-26T19:47:21;7.50;99.90
24097;DHT22;12275;48.550;12.132;2023-03-26T19:49:53;7.50;99.90
24097;DHT22;12275;48.550;12.132;2023-03-26T19:52:21;7.50;99.90
24097;DHT22;12275;48.550;12.132;2023-03-26T19:57:15;7.40;99.90
24097;DHT22;12275;48.550;12.132;2023-03-26T19:59:40;7.40;99.90
24097;DHT22;12275;48.550;12.132;2023-03-26T20:02:10;7.30;99.90
24097;DHT22;12275;48.550;12.132;2023-03-26T20:04:36;7.30;99.90
24097;DHT22;12275;48.550;12.132;2023-03-26T20:07:04;7.30;99.90
24097;DHT22;12275;48.550;12.132;2023-03-26T20:09:29;7.20;99.90
24097;DHT22;12275;48.550;12.132;2023-03-26T20:11:55;7.10;99.90
24097;DHT22;12275;48.550;12.132;2023-03-26T20:14:21;7.10;99.90
24097;DHT22;12275;48.550;12.132;2023-03-26T20:16:50;7.00;99.90
24097;DHT22;12275;48.550;12.132;2023-03-26T20:19:15;7.00;99.90
24097;DHT22;12275;48.550;12.132;2023-03-26T20:21:41;6.90;99.90
24097;DHT22;12275;48.550;12.132;2023-03-26T20:24:09;6.90;99.90
24097;DHT22;12275;48.550;12.132;2023-03-26T20:26:34;6.90;99.90
24097;DHT22;12275;48.550;12.132;2023-03-26T20:29:00;6.80;99.90
24097;DHT22;12275;48.550;12.132;2023-03-26T20:31:25;6.80;99.90
24097;DHT22;12275;48.550;12.132;2023-03-26T20:33:52;6.80;99.90
24097;DHT22;12275;48.550;12.132;2023-03-26T20:36:18;6.80;99.90
24097;DHT22;12275;48.550;12.132;2023-03-26T20:38:46;6.80;99.90
24097;DHT22;12275;48.550;12.132;2023-03-26T20:41:17;6.70;99.90
24097;DHT22;12275;48.550;12.132;2023-03-26T20:43:44;6.70;99.90
24097;DHT22;12275;48.550;12.132;2023-03-26T20:46:16;6.70;99.90
24097;DHT22;12275;48.550;12.132;2023-03-26T20:48:43;6.80;99.90
24097;DHT22;12275;48.550;12.132;2023-03-26T20:51:09;6.80;99.90
24097;DHT22;12275;48.550;12.132;2023-03-26T20:53:36;6.80;99.90
24097;DHT22;12275;48.550;12.132;2023-03-26T20:56:02;6.70;99.90
24097;DHT22;12275;48.550;12.132;2023-03-26T20:58:28;6.70;99.90
24097;DHT22;12275;48.550;12.132;2023-03-26T21:00:53;6.70;99.90
24097;DHT22;12275;48.550;12.132;2023-03-26T21:03:24;6.60;99.90
24097;DHT22;12275;48.550;12.132;2023-03-26T21:05:49;6.60;99.90
24097;DHT22;12275;48.550;12.132;2023-03-26T21:08:18;6.50;99.90
24097;DHT22;12275;48.550;12.132;2023-03-26T21:13:12;6.50;99.90
24097;DHT22;12275;48.550;12.132;2023-03-26T21:15:38;6.50;99.90
24097;DHT22;12275;48.550;12.132;2023-03-26T21:18:03;6.60;99.90
24097;DHT22;12275;48.550;12.132;2023-03-26T21:20:29;6.60;99.90
24097;DHT22;12275;48.550;12.132;2023-03-26T21:30:46;6.60;99.90
24097;DHT22;12275;48.550;12.132;2023-03-26T21:33:12;6.60;99.90
24097;DHT22;12275;48.550;12.132;2023-03-26T21:35:38;6.60;99.90
24097;DHT22;12275;48.550;12.132;2023-03-26T21:38:04;6.50;99.90
24097;DHT22;12275;48.550;12.132;2023-03-26T21:40:29;6.60;99.90
24097;DHT22;12275;48.550;12.132;2023-03-26T21:42:55;6.60;99.90
24097;DHT22;12275;48.550;12.132;2023-03-26T21:45:21;6.60;99.90
24097;DHT22;12275;48.550;12.132;2023-03-26T21:47:47;6.60;99.90
24097;DHT22;12275;48.550;12.132;2023-03-26T21:50:14;6.60;99.90
24097;DHT22;12275;48.550;12.132;2023-03-26T21:52:40;6.70;99.90
24097;DHT22;12275;48.550;12.132;2023-03-26T21:55:14;6.60;99.90
24097;DHT22;12275;48.550;12.132;2023-03-26T22:00:10;6.70;99.90
24097;DHT22;12275;48.550;12.132;2023-03-26T22:05:16;6.70;99.90
24097;DHT22;12275;48.550;12.132;2023-03-26T22:10:10;6.70;99.90
24097;DHT22;12275;48.550;12.132;2023-03-26T22:12:36;6.70;99.90
24097;DHT22;12275;48.550;12.132;2023-03-26T22:15:02;6.70;99.90
24097;DHT22;12275;48.550;12.132;2023-03-26T22:17:28;6.70;99.90
24097;DHT22;12275;48.550;12.132;2023-03-26T22:19:54;6.70;99.90
24097;DHT22;12275;48.550;12.132;2023-03-26T22:22:20;6.70;99.90
24097;DHT22;12275;48.550;12.132;2023-03-26T22:24:46;6.70;99.90
24097;DHT22;12275;48.550;12.132;2023-03-26T22:27:12;6.70;99.90
24097;DHT22;12275;48.550;12.132;2023-03-26T22:29:37;6.70;99.90
24097;DHT22;12275;48.550;12.132;2023-03-26T22:32:03;6.60;99.90
24097;DHT22;12275;48.550;12.132;2023-03-26T22:34:29;6.60;99.90
24097;DHT22;12275;48.550;12.132;2023-03-26T22:36:55;6.60;99.90
24097;DHT22;12275;48.550;12.132;2023-03-26T22:39:21;6.50;99.90
24097;DHT22;12275;48.550;12.132;2023-03-26T22:41:47;6.50;99.90
24097;DHT22;12275;48.550;12.132;2023-03-26T22:44:12;6.50;99.90
24097;DHT22;12275;48.550;12.132;2023-03-26T22:46:38;6.50;99.90
24097;DHT22;12275;48.550;12.132;2023-03-26T22:49:04;6.50;99.90
24097;DHT22;12275;48.550;12.132;2023-03-26T22:51:30;6.50;99.90
24097;DHT22;12275;48.550;12.132;2023-03-26T22:53:55;6.40;99.90
24097;DHT22;12275;48.550;12.132;2023-03-26T22:56:21;6.40;99.90
24097;DHT22;12275;48.550;12.132;2023-03-26T22:58:47;6.40;99.90
24097;DHT22;12275;48.550;12.132;2023-03-26T23:01:17;6.40;99.90
24097;DHT22;12275;48.550;12.132;2023-03-26T23:03:43;6.40;99.90
24097;DHT22;12275;48.550;12.132;2023-03-26T23:06:09;6.40;99.90
24097;DHT22;12275;48.550;12.132;2023-03-26T23:08:36;6.30;99.90
24097;DHT22;12275;48.550;12.132;2023-03-26T23:11:09;6.30;99.90
24097;DHT22;12275;48.550;12.132;2023-03-26T23:13:35;6.30;99.90
24097;DHT22;12275;48.550;12.132;2023-03-26T23:16:00;6.30;99.90
24097;DHT22;12275;48.550;12.132;2023-03-26T23:18:27;6.30;99.90
24097;DHT22;12275;48.550;12.132;2023-03-26T23:20:53;6.20;99.90